Murcia Airport, Spain

9:21 AM CEST on September 03, 2014 (GMT +0200)
San Javier Air Base | Change Station
CLOSE
Current Station
Airport
Location: Murcia Airport,
Elevation: 10 ft
Nearby Weather Stations

Elev 10 ft 37.79 °N, 0.80 °W | Updated 21 minutes ago

Partly Cloudy
Partly Cloudy
75 °F
Feels Like 75 °F
N
2
Wind Variable Wind from WSW

Today
High -- | Low -- °F
--% Chance of Precip.
Yesterday
High -- | Low -- °F
Precip. -- in
7:34 AM 8:29 PM
First Quarter, 59% visible
Pressure 29.86 in
Visibility 5.6 miles
Clouds Few 1100 ft
Dew Point 72 °F
Humidity 89%
Rainfall 0.00 in
Snow Depth Not available.
UV 1 out of 12
Pollen Not available.
Air Quality Not available.
Flu Activity Not available.
METAR LELC 030700Z 25002KT 9000 FEW011 24/22 Q1011 NOSIG

More Conditions Fewer Conditions

Pressure 29.86 in
Visibility 5.6 miles
Clouds Few 1100 ft
Dew Point 72 °F
Humidity 89%
Rainfall 0.00 in
Snow Depth Not available.
UV 1 out of 12
Pollen Not available.
Air Quality Not available.
Flu Activity Not available.
METAR LELC 030700Z 25002KT 9000 FEW011 24/22 Q1011 NOSIG

More Conditions Fewer Conditions

10-Day Weather Forecast

Almanac

Astronomy

Sep. 03, 2014 Rise Set
Actual Time 7:34 AM CEST 8:29 PM CEST
Civil Twilight 7:07 AM CEST 8:56 PM CEST
Nautical Twilight 6:36 AM CEST 9:28 PM CEST
Astronomical Twilight 6:03 AM CEST 10:00 PM CEST
Moon 3:54 PM CEST 1:18 AM CEST
Length of Visible Light 13h 48m
Length of Day
12h 55m
Tomorrow will be 2m 21s shorter.
First Quarter, 59% of the Moon is Illuminated
Today
First Quarter
Sep 8
Full
Sep 15
Last Quarter
Sep 24
New
Oct 1
First Quarter

Yesterday's Extremes

Country Highs Country Lows

Community

WunderPhotos

Upload Photos

1,749,891 photos uploaded!

Nearby

Snow Depth

Not available.

Earthquake Activity

City Distance Mag. Time & Date
No recent earthquake activity has been reported nearby.
Minimum magnitude displayed is 2.5.

Coastal Water Temperatures

Place Temperature
No Stations Reporting

Nearby Weather Stations